createdAt,value
2023-08-07T00:00:08.483Z,100110.34
2023-08-07T00:02:43.556Z,100108.28
2023-08-07T00:05:16.987Z,100108.94
2023-08-07T00:08:02.183Z,100115.84
2023-08-07T00:10:45.093Z,100119.00
2023-08-07T00:13:25.569Z,100123.50
2023-08-07T00:16:11.434Z,100125.78
2023-08-07T00:18:50.033Z,100126.53
2023-08-07T00:21:23.415Z,100129.63
2023-08-07T00:24:04.559Z,100133.31
2023-08-07T00:26:45.890Z,100125.03
2023-08-07T00:29:21.366Z,100130.34
2023-08-07T00:31:58.429Z,100124.31
2023-08-07T00:34:39.039Z,100131.19
2023-08-07T00:37:24.827Z,100138.59
2023-08-07T00:40:15.869Z,100141.03
2023-08-07T00:42:58.588Z,100144.53
2023-08-07T00:45:38.971Z,100144.06
2023-08-07T00:48:22.935Z,100152.88
2023-08-07T00:51:04.898Z,100158.50
2023-08-07T00:53:46.694Z,100157.22
2023-08-07T00:56:24.336Z,100157.56
2023-08-07T00:59:02.382Z,100157.88
2023-08-07T01:01:45.118Z,100158.19
2023-08-07T01:04:20.310Z,100158.53
2023-08-07T01:06:57.836Z,100153.44
2023-08-07T01:09:36.828Z,100161.56
2023-08-07T01:12:33.782Z,100163.66
2023-08-07T01:15:29.218Z,100164.13
2023-08-07T01:18:09.235Z,100160.94
2023-08-07T01:20:49.955Z,100165.91
2023-08-07T01:23:39.711Z,100177.38
2023-08-07T01:26:22.773Z,100172.59
2023-08-07T01:29:04.495Z,100173.75
2023-08-07T01:31:52.864Z,100167.81
2023-08-07T01:34:33.841Z,100160.53
2023-08-07T01:37:09.408Z,100164.50
2023-08-07T01:39:50.290Z,100159.88
2023-08-07T01:42:27.365Z,100159.88
2023-08-07T01:45:05.990Z,100154.66
2023-08-07T01:47:38.317Z,100166.88
2023-08-07T01:50:22.058Z,100162.25
2023-08-07T01:53:03.970Z,100160.81
2023-08-07T01:58:46.148Z,100166.88
2023-08-07T02:01:28.600Z,100171.38
2023-08-07T02:04:08.775Z,100169.81
2023-08-07T02:06:47.914Z,100168.41
2023-08-07T02:09:24.082Z,100162.69
2023-08-07T02:12:05.080Z,100162.34
2023-08-07T02:14:40.120Z,100149.78
2023-08-07T02:17:17.461Z,100166.38
2023-08-07T02:19:56.284Z,100159.69
2023-08-07T02:22:31.577Z,100156.53
2023-08-07T02:25:14.124Z,100154.91
2023-08-07T02:27:57.617Z,100153.19
2023-08-07T02:30:39.946Z,100136.91
2023-08-07T02:33:27.973Z,100143.44
2023-08-07T02:36:09.416Z,100144.41
2023-08-07T02:38:50.607Z,100147.75
2023-08-07T02:41:30.154Z,100137.72
2023-08-07T02:44:21.019Z,100144.72
2023-08-07T02:47:07.140Z,100135.28
2023-08-07T02:49:46.602Z,100131.97
2023-08-07T02:52:23.972Z,100133.53
2023-08-07T02:55:04.007Z,100145.31
2023-08-07T02:57:44.932Z,100141.50
2023-08-07T03:00:44.955Z,100143.91
2023-08-07T03:03:20.155Z,100133.50
2023-08-07T03:06:08.064Z,100135.09
2023-08-07T03:08:43.782Z,100141.78
2023-08-07T03:11:26.687Z,100162.22
2023-08-07T03:14:04.815Z,100166.38
2023-08-07T03:16:46.032Z,100171.78
2023-08-07T03:19:25.548Z,100167.78
2023-08-07T03:22:17.169Z,100172.41
2023-08-07T03:24:56.744Z,100180.09
2023-08-07T03:27:37.554Z,100189.31
2023-08-07T03:30:16.542Z,100185.22
2023-08-07T03:32:58.841Z,100188.38
2023-08-07T03:35:37.865Z,100189.97
2023-08-07T03:38:10.158Z,100188.38
2023-08-07T03:40:53.105Z,100186.78
2023-08-07T03:43:29.770Z,100183.47
2023-08-07T03:46:09.981Z,100190.94
2023-08-07T03:48:54.738Z,100189.03
2023-08-07T03:51:38.495Z,100178.66
2023-08-07T03:54:18.403Z,100197.63
2023-08-07T03:56:58.716Z,100196.06
2023-08-07T03:59:31.449Z,100206.09
2023-08-07T04:02:06.253Z,100173.91
2023-08-07T04:04:45.931Z,100188.38
2023-08-07T04:07:25.035Z,100172.44
2023-08-07T04:10:03.900Z,100169.91
2023-08-07T04:12:39.200Z,100190.44
2023-08-07T04:15:31.108Z,100180.41
2023-08-07T04:18:06.523Z,100191.72
2023-08-07T04:20:43.990Z,100200.66
2023-08-07T04:23:25.186Z,100204.47
2023-08-07T04:26:00.163Z,100204.00
2023-08-07T04:28:40.463Z,100208.94
2023-08-07T04:31:19.787Z,100208.63
2023-08-07T04:33:56.820Z,100214.81
2023-08-07T04:36:36.903Z,100211.66
2023-08-07T04:39:21.504Z,100229.81
2023-08-07T04:41:57.270Z,100231.88
2023-08-07T04:44:38.749Z,100228.72
2023-08-07T04:47:14.727Z,100224.41
2023-08-07T04:49:58.112Z,100228.38
2023-08-07T04:52:36.793Z,100230.91
2023-08-07T04:55:18.067Z,100227.41
2023-08-07T04:57:59.189Z,100227.75
2023-08-07T05:00:38.450Z,100217.38
2023-08-07T05:03:08.996Z,100210.19
2023-08-07T05:05:54.026Z,100204.28
2023-08-07T05:08:39.532Z,100208.38
2023-08-07T05:11:20.422Z,100214.91
2023-08-07T05:13:57.029Z,100215.53
2023-08-07T05:16:33.189Z,100219.19
2023-08-07T05:19:06.722Z,100228.75
2023-08-07T05:21:56.606Z,100203.41
2023-08-07T05:24:40.599Z,100225.22
2023-08-07T05:27:18.521Z,100231.06
2023-08-07T05:29:51.318Z,100229.47
2023-08-07T05:32:26.284Z,100230.09
2023-08-07T05:34:59.371Z,100239.84
2023-08-07T05:37:40.881Z,100238.53
2023-08-07T05:40:31.795Z,100244.44
2023-08-07T05:43:03.140Z,100245.19
2023-08-07T05:45:38.504Z,100245.66
2023-08-07T05:48:13.343Z,100248.31
2023-08-07T05:51:00.333Z,100252.91
2023-08-07T05:53:43.524Z,100244.69
2023-08-07T05:56:37.111Z,100254.72
2023-08-07T05:59:16.198Z,100257.69
2023-08-07T06:01:58.961Z,100255.75
2023-08-07T06:04:37.966Z,100254.31
2023-08-07T06:07:15.936Z,100260.31
2023-08-07T06:09:49.194Z,100267.97
2023-08-07T06:12:30.283Z,100265.63
2023-08-07T06:15:05.254Z,100266.25
2023-08-07T06:17:46.231Z,100264.09
2023-08-07T06:20:29.280Z,100265.28
2023-08-07T06:23:15.917Z,100262.38
2023-08-07T06:25:58.636Z,100250.81
2023-08-07T06:28:41.685Z,100259.75
2023-08-07T06:31:33.994Z,100260.94
2023-08-07T06:34:17.560Z,100264.56
2023-08-07T06:36:55.485Z,100265.75
2023-08-07T06:42:40.139Z,100264.97
2023-08-07T06:45:14.813Z,100271.66
2023-08-07T06:47:47.250Z,100274.16
2023-08-07T06:50:40.560Z,100279.97
2023-08-07T06:53:12.572Z,100273.38
2023-08-07T06:58:31.409Z,100249.31
2023-08-07T07:01:14.628Z,100269.19
2023-08-07T07:03:54.275Z,100283.25
2023-08-07T07:06:29.688Z,100281.78
2023-08-07T07:09:10.295Z,100271.09
2023-08-07T07:11:43.330Z,100269.03
2023-08-07T07:14:24.319Z,100270.50
2023-08-07T07:17:08.502Z,100288.00
2023-08-07T07:19:41.316Z,100278.09
2023-08-07T07:22:19.548Z,100282.72
2023-08-07T07:24:58.907Z,100280.97
2023-08-07T07:27:36.809Z,100280.81
2023-08-07T07:30:13.088Z,100288.56
2023-08-07T07:33:02.506Z,100282.50
2023-08-07T07:35:42.535Z,100268.75
2023-08-07T07:38:15.793Z,100289.06
2023-08-07T07:40:47.962Z,100282.91
2023-08-07T07:43:24.202Z,100282.41
2023-08-07T07:46:09.910Z,100284.06
2023-08-07T07:48:54.663Z,100282.41
2023-08-07T07:51:25.538Z,100288.50
2023-08-07T07:54:13.732Z,100290.19
2023-08-07T07:56:52.522Z,100298.81
2023-08-07T07:59:35.004Z,100294.78
2023-08-07T08:02:15.792Z,100303.31
2023-08-07T08:04:55.574Z,100303.53
2023-08-07T08:07:31.032Z,100288.28
2023-08-07T08:10:05.989Z,100302.19
2023-08-07T08:12:40.548Z,100304.38
2023-08-07T08:15:26.412Z,100299.06
2023-08-07T08:18:06.545Z,100301.53
2023-08-07T08:20:45.891Z,100279.75
2023-08-07T08:23:27.605Z,100300.88
2023-08-07T08:26:06.772Z,100304.13
2023-08-07T08:28:47.212Z,100296.97
2023-08-07T08:31:37.763Z,100301.44
2023-08-07T08:34:19.173Z,100296.91
2023-08-07T08:37:05.126Z,100300.97
2023-08-07T08:39:46.260Z,100296.50
2023-08-07T08:42:26.927Z,100293.09
2023-08-07T08:45:18.390Z,100294.53
2023-08-07T08:47:53.804Z,100292.94
2023-08-07T08:50:35.543Z,100284.72
2023-08-07T08:53:17.723Z,100288.94
2023-08-07T08:55:55.298Z,100281.84
2023-08-07T08:58:41.860Z,100283.22
2023-08-07T09:01:16.639Z,100280.25
2023-08-07T09:03:54.807Z,100285.59
2023-08-07T09:06:44.418Z,100289.59
2023-08-07T09:09:26.114Z,100284.97
2023-08-07T09:12:10.093Z,100283.59
2023-08-07T09:14:50.207Z,100276.59
2023-08-07T09:17:32.853Z,100277.47
2023-08-07T09:20:09.408Z,100282.75
2023-08-07T09:22:52.730Z,100284.22
2023-08-07T09:25:46.798Z,100278.72
2023-08-07T09:28:19.166Z,100279.69
2023-08-07T09:31:03.152Z,100273.09
2023-08-07T09:33:40.191Z,100269.75
2023-08-07T09:36:17.993Z,100271.66
2023-08-07T09:39:00.442Z,100282.81
2023-08-07T09:41:42.039Z,100286.50
2023-08-07T09:44:20.414Z,100289.03
2023-08-07T09:46:54.953Z,100283.34
2023-08-07T09:49:43.766Z,100284.34
2023-08-07T09:52:22.434Z,100287.22
2023-08-07T09:54:53.979Z,100280.84
2023-08-07T09:57:32.392Z,100285.09
2023-08-07T10:00:08.349Z,100285.22
2023-08-07T10:03:11.034Z,100289.53
2023-08-07T10:05:57.913Z,100274.03
2023-08-07T10:08:32.449Z,100290.81
2023-08-07T10:11:08.347Z,100285.69
2023-08-07T10:13:56.220Z,100292.59
2023-08-07T10:16:43.504Z,100286.78
2023-08-07T10:19:23.336Z,100285.22
2023-08-07T10:22:02.319Z,100288.44
2023-08-07T10:24:37.783Z,100290.91
2023-08-07T10:27:15.675Z,100299.09
2023-08-07T10:30:08.282Z,100295.25
2023-08-07T10:32:55.283Z,100299.97
2023-08-07T10:35:37.737Z,100295.09
2023-08-07T10:38:18.043Z,100292.78
2023-08-07T10:44:03.627Z,100294.88
2023-08-07T10:46:57.442Z,100287.97
2023-08-07T10:49:57.208Z,100298.88
2023-08-07T10:52:35.721Z,100292.97
2023-08-07T10:55:19.549Z,100296.00
2023-08-07T10:57:53.056Z,100284.66
2023-08-07T11:00:34.495Z,100290.53
2023-08-07T11:03:18.413Z,100276.09
2023-08-07T11:05:55.198Z,100280.81
2023-08-07T11:08:31.075Z,100275.00
2023-08-07T11:11:08.737Z,100281.59
2023-08-07T11:13:54.825Z,100279.75
2023-08-07T11:16:30.582Z,100271.22
2023-08-07T11:19:12.236Z,100271.22
2023-08-07T11:21:52.393Z,100274.69
2023-08-07T11:24:32.305Z,100269.63
2023-08-07T11:29:56.647Z,100257.66
2023-08-07T11:32:38.769Z,100259.00
2023-08-07T11:35:18.406Z,100252.94
2023-08-07T11:38:17.954Z,100255.44
2023-08-07T11:40:52.413Z,100257.88
2023-08-07T11:43:29.121Z,100265.47
2023-08-07T11:46:04.908Z,100252.13
2023-08-07T11:48:41.168Z,100254.44
2023-08-07T11:51:25.278Z,100243.28
2023-08-07T11:54:02.372Z,100254.22
2023-08-07T11:56:38.632Z,100235.75
2023-08-07T11:59:14.033Z,100229.06
2023-08-07T12:01:52.713Z,100232.53
2023-08-07T12:04:23.735Z,100228.94
2023-08-07T12:07:06.303Z,100228.19
2023-08-07T12:09:39.228Z,100238.56
2023-08-07T12:12:17.664Z,100237.13
2023-08-07T12:14:48.727Z,100224.22
2023-08-07T12:17:25.833Z,100242.34
2023-08-07T12:20:03.943Z,100243.63
2023-08-07T12:22:43.434Z,100235.84
2023-08-07T12:25:23.823Z,100233.06
2023-08-07T12:27:59.752Z,100219.94
2023-08-07T12:30:41.904Z,100239.56
2023-08-07T12:33:14.109Z,100248.81
2023-08-07T12:36:02.222Z,100247.25
2023-08-07T12:38:46.339Z,100245.75
2023-08-07T12:44:20.292Z,100241.44
2023-08-07T12:47:10.295Z,100230.09
2023-08-07T12:49:46.454Z,100234.50
2023-08-07T12:52:24.485Z,100228.13
2023-08-07T12:55:07.848Z,100232.03
2023-08-07T12:57:47.185Z,100226.13
2023-08-07T13:00:22.874Z,100228.09
2023-08-07T13:02:57.962Z,100233.66
2023-08-07T13:05:38.581Z,100235.00
2023-08-07T13:08:12.258Z,100224.41
2023-08-07T13:10:50.288Z,100211.09
2023-08-07T13:13:35.491Z,100224.06
2023-08-07T13:16:10.968Z,100221.31
2023-08-07T13:18:52.507Z,100226.03
2023-08-07T13:21:22.860Z,100218.94
2023-08-07T13:23:57.941Z,100219.75
2023-08-07T13:26:48.582Z,100221.66
2023-08-07T13:29:23.228Z,100229.50
2023-08-07T13:32:07.906Z,100231.81
2023-08-07T13:34:46.704Z,100240.81
2023-08-07T13:37:23.798Z,100228.88
2023-08-07T13:39:58.082Z,100232.34
2023-08-07T13:45:32.415Z,100221.25
2023-08-07T13:48:15.057Z,100237.13
2023-08-07T13:50:51.377Z,100235.59
2023-08-07T13:53:25.986Z,100243.84
2023-08-07T13:56:00.516Z,100236.06
2023-08-07T13:58:38.884Z,100241.31
2023-08-07T14:01:19.418Z,100250.16
2023-08-07T14:03:56.779Z,100262.66
2023-08-07T14:06:44.561Z,100262.22
2023-08-07T14:09:26.557Z,100272.44
2023-08-07T14:12:05.452Z,100268.13
2023-08-07T14:14:56.826Z,100270.34
2023-08-07T14:17:27.548Z,100270.72
2023-08-07T14:20:06.632Z,100268.34
2023-08-07T14:22:38.064Z,100262.78
2023-08-07T14:25:13.607Z,100241.44
2023-08-07T14:27:59.076Z,100264.03
2023-08-07T14:30:53.494Z,100265.91
2023-08-07T14:33:23.841Z,100264.22
2023-08-07T14:36:03.564Z,100249.75
2023-08-07T14:38:42.510Z,100250.84
2023-08-07T14:41:20.885Z,100254.78
2023-08-07T14:43:59.775Z,100249.75
2023-08-07T14:46:53.386Z,100263.16
2023-08-07T14:49:49.199Z,100269.50
2023-08-07T14:52:24.653Z,100262.22
2023-08-07T14:55:03.253Z,100284.75
2023-08-07T14:57:49.437Z,100284.31
2023-08-07T15:00:28.870Z,100287.84
2023-08-07T15:03:19.872Z,100289.72
2023-08-07T15:05:50.481Z,100297.84
2023-08-07T15:11:03.179Z,100304.13
2023-08-07T15:13:38.283Z,100297.41
2023-08-07T15:16:19.535Z,100297.41
2023-08-07T15:18:57.886Z,100288.44
2023-08-07T15:21:32.652Z,100299.53
2023-08-07T15:24:19.031Z,100313.13
2023-08-07T15:26:54.187Z,100321.31
2023-08-07T15:29:33.501Z,100316.13
2023-08-07T15:32:24.110Z,100312.88
2023-08-07T15:35:02.406Z,100325.41
2023-08-07T15:37:41.592Z,100331.34
2023-08-07T15:40:19.378Z,100327.91
2023-08-07T15:42:54.157Z,100338.50
2023-08-07T15:45:29.112Z,100341.41
2023-08-07T15:48:11.377Z,100349.41
2023-08-07T15:51:04.140Z,100359.22
2023-08-07T15:53:43.474Z,100362.53
2023-08-07T15:56:18.278Z,100368.13
2023-08-07T15:58:55.210Z,100374.03
2023-08-07T16:01:30.899Z,100369.78
2023-08-07T16:04:16.117Z,100416.47
2023-08-07T16:06:58.029Z,100421.69
2023-08-07T16:09:38.186Z,100430.41
2023-08-07T16:12:21.834Z,100444.25
2023-08-07T16:15:00.206Z,100442.66
2023-08-07T16:17:40.468Z,100443.34
2023-08-07T16:20:20.614Z,100434.59
2023-08-07T16:23:01.723Z,100431.16
2023-08-07T16:25:41.839Z,100437.63
2023-08-07T16:28:20.000Z,100431.75
2023-08-07T16:30:57.054Z,100453.78
2023-08-07T16:33:40.044Z,100455.59
2023-08-07T16:36:17.623Z,100459.78
2023-08-07T16:39:06.411Z,100465.47
2023-08-07T16:41:50.354Z,100468.22
2023-08-07T16:44:23.136Z,100474.91
2023-08-07T16:47:04.267Z,100486.72
2023-08-07T16:49:37.301Z,100494.69
2023-08-07T16:52:17.927Z,100477.19
2023-08-07T16:55:19.692Z,100481.25
2023-08-07T16:58:02.305Z,100511.34
2023-08-07T17:00:43.268Z,100513.31
2023-08-07T17:03:22.540Z,100510.13
2023-08-07T17:05:54.776Z,100492.31
2023-08-07T17:08:28.534Z,100519.25
2023-08-07T17:11:23.498Z,100520.28
2023-08-07T17:14:09.212Z,100515.41
2023-08-07T17:16:49.496Z,100513.81
2023-08-07T17:19:29.286Z,100519.25
2023-08-07T17:22:08.424Z,100518.13
2023-08-07T17:24:50.768Z,100515.72
2023-08-07T17:27:31.847Z,100510.41
2023-08-07T17:30:08.852Z,100520.28
2023-08-07T17:32:53.113Z,100524.50
2023-08-07T17:35:33.600Z,100520.31
2023-08-07T17:38:14.265Z,100516.91
2023-08-07T17:40:54.109Z,100538.38
2023-08-07T17:43:39.242Z,100544.53
2023-08-07T17:46:17.652Z,100543.38
2023-08-07T17:48:54.701Z,100545.19
2023-08-07T17:51:31.571Z,100546.56
2023-08-07T17:54:06.463Z,100548.94
2023-08-07T17:56:38.509Z,100547.38
2023-08-07T17:59:21.116Z,100531.63
2023-08-07T18:02:02.486Z,100542.44
2023-08-07T18:04:32.733Z,100551.75
2023-08-07T18:07:05.137Z,100555.97
2023-08-07T18:09:39.509Z,100552.91
2023-08-07T18:12:15.471Z,100554.03
2023-08-07T18:15:01.543Z,100556.06
2023-08-07T18:17:34.077Z,100565.50
2023-08-07T18:20:16.649Z,100561.66
2023-08-07T18:22:55.282Z,100573.59
2023-08-07T18:25:34.426Z,100575.16
2023-08-07T18:28:13.466Z,100577.03
2023-08-07T18:30:54.862Z,100585.94
2023-08-07T18:33:28.754Z,100584.28
2023-08-07T18:36:09.168Z,100591.84
2023-08-07T18:38:43.070Z,100605.81
2023-08-07T18:41:17.381Z,100599.84
2023-08-07T18:44:09.519Z,100609.66
2023-08-07T18:46:47.756Z,100610.97
2023-08-07T18:49:29.747Z,100614.16
2023-08-07T18:52:02.422Z,100623.16
2023-08-07T18:54:44.804Z,100628.97
2023-08-07T18:57:25.361Z,100641.53
2023-08-07T19:00:01.593Z,100640.38
2023-08-07T19:02:46.517Z,100637.66
2023-08-07T19:05:26.851Z,100650.06
2023-08-07T19:08:03.268Z,100644.41
2023-08-07T19:10:41.084Z,100649.00
2023-08-07T19:13:15.167Z,100657.53
2023-08-07T19:15:51.108Z,100657.66
2023-08-07T19:18:28.558Z,100661.09
2023-08-07T19:21:09.003Z,100649.97
2023-08-07T19:23:48.166Z,100666.28
2023-08-07T19:26:20.042Z,100677.22
2023-08-07T19:28:51.675Z,100678.34
2023-08-07T19:31:32.840Z,100683.97
2023-08-07T19:34:18.320Z,100688.44
2023-08-07T19:36:52.065Z,100684.47
2023-08-07T19:39:26.767Z,100685.09
2023-08-07T19:41:57.185Z,100691.00
2023-08-07T19:44:29.157Z,100696.22
2023-08-07T19:47:06.816Z,100705.44
2023-08-07T19:49:46.858Z,100705.75
2023-08-07T19:52:21.356Z,100707.69
2023-08-07T19:55:08.998Z,100713.38
2023-08-07T19:57:51.011Z,100711.31
2023-08-07T20:00:24.465Z,100721.50
2023-08-07T20:03:02.759Z,100724.16
2023-08-07T20:05:53.116Z,100721.69
2023-08-07T20:08:33.523Z,100730.50
2023-08-07T20:11:10.968Z,100732.97
2023-08-07T20:13:48.739Z,100740.63
2023-08-07T20:16:36.364Z,100753.75
2023-08-07T20:19:14.092Z,100752.25
2023-08-07T20:22:04.134Z,100738.94
2023-08-07T20:24:36.161Z,100751.00
2023-08-07T20:27:13.716Z,100743.34
2023-08-07T20:29:46.196Z,100739.63
2023-08-07T20:32:24.673Z,100736.78
2023-08-07T20:34:54.975Z,100744.91
2023-08-07T20:37:36.814Z,100743.50
2023-08-07T20:40:21.641Z,100739.81
2023-08-07T20:42:59.164Z,100751.88
2023-08-07T20:45:47.207Z,100755.94
2023-08-07T20:48:21.624Z,100756.78
2023-08-07T20:51:01.180Z,100757.47
2023-08-07T20:53:50.416Z,100755.69
2023-08-07T20:56:31.876Z,100764.53
2023-08-07T20:59:13.271Z,100767.25
2023-08-07T21:01:52.877Z,100765.16
2023-08-07T21:04:39.722Z,100778.31
2023-08-07T21:07:19.117Z,100767.44
2023-08-07T21:10:10.981Z,100779.91
2023-08-07T21:12:49.551Z,100789.03
2023-08-07T21:15:29.589Z,100793.50
2023-08-07T21:18:29.249Z,100798.13
2023-08-07T21:21:08.834Z,100794.88
2023-08-07T21:23:45.052Z,100801.88
2023-08-07T21:26:34.369Z,100808.31
2023-08-07T21:29:13.729Z,100803.97
2023-08-07T21:31:47.921Z,100805.06
2023-08-07T21:34:21.022Z,100812.38
2023-08-07T21:36:55.030Z,100808.69
2023-08-07T21:39:30.955Z,100815.41
2023-08-07T21:42:10.952Z,100825.13
2023-08-07T21:44:52.474Z,100820.81
2023-08-07T21:47:39.465Z,100825.84
2023-08-07T21:50:19.391Z,100831.22
2023-08-07T21:53:14.624Z,100807.22
2023-08-07T21:55:56.066Z,100825.97
2023-08-07T21:58:49.638Z,100840.69
2023-08-07T22:01:23.426Z,100837.97
2023-08-07T22:04:03.657Z,100843.66
2023-08-07T22:06:47.488Z,100848.97
2023-08-07T22:09:20.854Z,100850.75
2023-08-07T22:11:52.693Z,100844.81
2023-08-07T22:14:54.842Z,100849.59
2023-08-07T22:17:28.061Z,100862.47
2023-08-07T22:20:05.377Z,100859.22
2023-08-07T22:22:41.593Z,100867.56
2023-08-07T22:25:24.930Z,100874.72
2023-08-07T22:28:04.528Z,100873.09
2023-08-07T22:30:55.123Z,100884.75
2023-08-07T22:33:33.350Z,100892.59
2023-08-07T22:36:16.405Z,100870.41
2023-08-07T22:38:49.646Z,100890.31
2023-08-07T22:41:24.959Z,100898.72
2023-08-07T22:44:18.604Z,100906.88
2023-08-07T22:47:11.056Z,100906.88
2023-08-07T22:49:52.518Z,100906.69
2023-08-07T22:52:24.998Z,100912.31
2023-08-07T22:55:08.684Z,100909.91
2023-08-07T22:57:49.235Z,100908.91
2023-08-07T23:00:24.061Z,100913.53
2023-08-07T23:03:00.083Z,100898.47
2023-08-07T23:05:36.432Z,100909.09
2023-08-07T23:08:16.177Z,100911.09
2023-08-07T23:10:54.797Z,100925.16
2023-08-07T23:13:36.780Z,100908.22
2023-08-07T23:16:08.952Z,100922.56
2023-08-07T23:19:10.665Z,100919.69
2023-08-07T23:21:47.667Z,100910.38
2023-08-07T23:24:21.866Z,100899.13
2023-08-07T23:27:03.191Z,100921.94
2023-08-07T23:29:35.016Z,100925.69
2023-08-07T23:32:12.107Z,100925.97
2023-08-07T23:34:52.720Z,100916.75
2023-08-07T23:37:27.330Z,100915.13
2023-08-07T23:40:07.342Z,100921.06
2023-08-07T23:42:46.605Z,100927.06
2023-08-07T23:45:25.718Z,100925.00
2023-08-07T23:48:02.884Z,100924.47
2023-08-07T23:50:52.018Z,100924.47
2023-08-07T23:53:40.437Z,100911.44
2023-08-07T23:56:19.235Z,100917.44
2023-08-07T23:58:55.772Z,100918.56
